EDT,Max TemperatureF,Mean TemperatureF,Min TemperatureF,Max Dew PointF,MeanDew PointF,Min DewpointF,Max Humidity, Mean Humidity, Min Humidity, Max Sea Level PressureIn, Mean Sea Level PressureIn, Min Sea Level PressureIn, Max VisibilityMiles, Mean VisibilityMiles, Min VisibilityMiles, Max Wind SpeedMPH, Mean Wind SpeedMPH, Max Gust SpeedMPH,PrecipitationIn, CloudCover, Events, WindDirDegrees
2013-9-1,78,68,57,66,62,52,100,86,54,29.83,29.74,29.67,10,10,1,15,6,20,0.18,5,Thunderstorm,206
2013-9-2,62,56,51,52,48,45,88,73,63,29.98,29.91,29.82,10,10,10,17,9,24,0.00,6,,323
2013-9-3,75,60,46,52,49,45,93,69,41,30.02,29.96,29.90,,,,14,8,22,0.00,0,,274
2013-9-4,66,58,50,55,47,34,94,68,30,30.18,30.05,29.90,10,10,5,13,5,18,0.00,2,,344
2013-9-5,64,52,41,52,44,37,93,71,48,30.32,30.26,30.18,10,9,2,12,5,16,0.00,0,,204
2013-9-6,73,62,50,63,53,45,88,75,49,30.21,30.08,29.92,10,10,10,16,8,22,0.00,2,,218
2013-9-7,82,70,59,70,64,54,94,83,65,30.07,29.91,29.85,10,10,2,13,5,21,0.52,6,Thunderstorm,324
2013-9-8,66,57,48,55,52,46,94,81,64,30.16,30.10,30.02,10,10,2,13,5,,0.00,0,,76
2013-9-9,69,60,51,64,60,48,94,89,77,30.01,29.87,29.69,10,6,0,12,4,20,0.01,7,,166
2013-9-10,87,76,64,72,66,63,100,81,48,29.90,29.79,29.69,10,6,0,16,5,23,0.31,5,Thunderstorm,270
2013-9-11,80,70,59,66,62,54,94,81,51,29.95,29.92,29.88,10,10,3,15,5,23,0.13,2,,260
2013-9-12,62,55,48,54,49,43,94,78,59,30.14,30.02,29.93,10,10,8,15,8,25,0.00,4,,333
2013-9-13,59,50,41,45,39,36,87,67,45,30.22,30.17,30.13,10,10,10,14,6,20,0.00,2,,355
2013-9-14,68,52,37,52,43,34,100,70,45,30.13,30.04,29.95,10,10,10,17,6,25,0.00,0,,235
2013-9-15,60,50,39,54,48,36,94,81,63,30.26,30.06,29.92,10,10,3,14,7,23,0.06,6,,303
2013-9-16,57,45,33,43,38,30,93,74,51,30.44,30.37,30.26,10,10,10,12,5,,0.00,0,,29
2013-9-17,62,47,32,52,43,30,100,79,63,30.36,30.28,30.13,10,10,10,16,4,23,0.00,1,,194
2013-9-18,64,60,55,61,57,52,94,87,77,30.12,29.98,29.89,10,9,4,13,8,17,0.11,7,Thunderstorm,188
2013-9-19,71,66,62,64,62,61,94,91,78,29.90,29.81,29.69,10,5,0,17,10,24,0.13,8,Thunderstorm,166
2013-9-20,73,64,55,66,60,46,94,81,56,29.75,29.66,29.63,10,8,0,15,6,21,0.03,7,Thunderstorm,266
2013-9-21,55,48,42,48,41,36,93,73,51,29.96,29.83,29.75,10,10,10,15,7,24,0.00,6,,313
2013-9-22,51,46,41,43,40,37,87,76,58,30.10,30.05,29.96,10,10,10,9,5,,0.00,7,,346
2013-9-23,57,48,39,46,42,37,93,75,59,30.17,30.12,30.09,10,10,10,13,4,17,0.00,6,,172
2013-9-24,62,48,35,54,44,34,93,84,68,30.11,30.07,30.01,10,9,4,13,2,,0.00,2,,143
2013-9-25,64,52,39,54,45,36,100,83,59,30.05,30.02,30.01,10,5,0,8,2,,0.00,3,,141
2013-9-26,66,52,39,57,48,37,100,85,64,30.12,30.09,30.01,10,6,0,12,3,,0.00,4,,152
2013-9-27,68,55,42,61,51,41,100,85,68,30.17,30.13,30.09,10,5,0,16,3,20,0.00,4,,170
2013-9-28,66,62,57,61,57,55,94,76,68,29.84,29.80,29.77,10,8,4,16,14,26,0.08,5,,198
2013-9-29,64,54,44,54,49,43,100,79,59,30.02,29.95,29.83,10,9,0,15,7,20,0.01,0,,219
2013-9-30,66,55,44,54,48,41,100,73,52,29.97,29.88,29.78,10,10,1,18,7,25,0.00,0,,198